createdAt,value
2022-09-21T13:28:19.081Z,0.80
2022-09-21T13:30:50.685Z,0.90
2022-09-21T13:33:33.902Z,0.60
2022-09-21T13:36:10.655Z,0.80
2022-09-21T13:39:05.308Z,0.90
2022-09-21T13:41:58.926Z,0.80
2022-09-21T13:44:42.399Z,0.80
2022-09-21T13:47:11.467Z,0.80
2022-09-21T13:49:45.421Z,0.60
2022-09-21T13:52:31.637Z,0.80
2022-09-21T13:57:32.260Z,0.77
2022-09-21T14:00:23.837Z,0.80
2022-09-21T14:02:57.504Z,0.90
2022-09-21T14:05:28.801Z,0.70
2022-09-21T14:07:57.317Z,0.75
2022-09-21T14:10:25.395Z,0.85
2022-09-21T14:12:53.914Z,0.82
2022-09-21T14:15:40.322Z,0.95
2022-09-21T14:18:46.519Z,0.75
2022-09-21T14:21:18.732Z,0.80
2022-09-21T14:24:27.687Z,0.73
2022-09-21T14:27:01.764Z,0.70
2022-09-21T14:29:36.678Z,0.98
2022-09-21T14:32:06.769Z,0.90
2022-09-21T14:34:37.282Z,0.80
2022-09-21T14:37:07.740Z,1.15
2022-09-21T14:39:38.618Z,0.77
2022-09-21T14:42:12.262Z,0.70
2022-09-21T14:44:40.730Z,0.70
2022-09-21T14:47:25.399Z,1.00
2022-09-21T14:50:15.067Z,0.80
2022-09-21T14:52:54.260Z,0.80
2022-09-21T14:55:24.990Z,0.93
2022-09-21T14:58:02.480Z,0.90
2022-09-21T15:00:39.806Z,0.80
2022-09-21T15:03:26.792Z,0.90
2022-09-21T15:05:55.701Z,1.00
2022-09-21T15:08:52.237Z,0.80
2022-09-21T15:11:23.636Z,0.80
2022-09-21T15:14:21.419Z,0.70
2022-09-21T15:16:51.781Z,0.80
2022-09-21T15:19:25.682Z,0.80
2022-09-21T15:21:54.431Z,1.05
2022-09-21T15:24:26.032Z,0.93
2022-09-21T15:26:55.538Z,1.13
2022-09-21T15:29:26.210Z,0.90
2022-09-21T15:31:54.479Z,0.80
2022-09-21T15:34:24.463Z,1.25
2022-09-21T15:36:53.018Z,0.90
2022-09-21T15:39:23.278Z,0.80
2022-09-21T15:41:56.558Z,1.00
2022-09-21T15:44:26.503Z,0.93
2022-09-21T15:47:00.273Z,0.95
2022-09-21T15:49:30.317Z,0.95
2022-09-21T15:51:59.948Z,1.00
2022-09-21T15:54:32.330Z,1.15
2022-09-21T15:57:04.678Z,1.00
2022-09-21T15:59:35.485Z,0.93
2022-09-21T16:02:13.207Z,1.00
2022-09-21T16:04:45.165Z,1.10
2022-09-21T16:07:26.216Z,1.30
2022-09-21T16:09:55.112Z,0.90
2022-09-21T16:12:37.120Z,0.90
2022-09-21T16:15:08.175Z,1.10
2022-09-21T16:17:39.361Z,1.27
2022-09-21T16:20:19.853Z,0.80
2022-09-21T16:22:48.906Z,0.80
2022-09-21T16:25:27.632Z,1.00
2022-09-21T16:27:56.545Z,0.90
2022-09-21T16:30:52.154Z,1.02
2022-09-21T16:33:41.090Z,0.80
2022-09-21T16:36:41.936Z,0.93
2022-09-21T16:39:19.412Z,0.85
2022-09-21T16:41:50.384Z,1.00
2022-09-21T16:44:22.950Z,0.90
2022-09-21T16:46:58.727Z,0.80
2022-09-21T16:52:00.336Z,1.08
2022-09-21T16:54:28.634Z,1.10
2022-09-21T16:56:58.557Z,1.02
2022-09-21T16:59:26.814Z,1.02
2022-09-21T17:01:56.726Z,1.20
2022-09-21T17:04:25.881Z,1.45
2022-09-21T17:06:54.130Z,1.30
2022-09-21T17:09:29.234Z,1.55
2022-09-21T17:14:27.481Z,1.60
2022-09-21T17:16:57.550Z,5.70
2022-09-21T17:19:25.700Z,2.75
2022-09-21T17:21:54.247Z,1.40
2022-09-21T17:24:48.560Z,1.20
2022-09-21T17:27:12.406Z,2.08
2022-09-21T17:29:47.391Z,5.60
2022-09-21T17:32:17.578Z,1.10
2022-09-21T17:34:46.165Z,1.20
2022-09-21T17:37:14.367Z,1.20
2022-09-21T17:39:46.630Z,2.08
2022-09-21T17:42:19.037Z,4.28
2022-09-21T17:45:02.918Z,3.58
2022-09-21T17:47:33.325Z,3.88
2022-09-21T17:50:17.060Z,2.80
2022-09-21T17:53:03.474Z,3.60
2022-09-21T17:55:33.551Z,2.17
2022-09-21T17:58:10.022Z,2.13
2022-09-21T18:00:42.230Z,2.05
2022-09-21T18:03:21.850Z,2.03
2022-09-21T18:05:50.853Z,2.58
2022-09-21T18:08:19.485Z,8.88
2022-09-21T18:10:52.679Z,25.60
2022-09-21T18:13:25.245Z,19.90
2022-09-21T18:16:03.733Z,8.95
2022-09-21T18:18:42.772Z,3.90
2022-09-21T18:21:14.380Z,3.80
2022-09-21T18:23:45.324Z,2.78
2022-09-21T18:26:17.120Z,2.00
2022-09-21T18:28:46.240Z,2.13
2022-09-21T18:31:24.429Z,2.50
2022-09-21T18:33:57.524Z,2.42
2022-09-21T18:36:28.559Z,2.50
2022-09-21T18:39:03.395Z,4.25
2022-09-21T18:41:36.320Z,2.75
2022-09-21T18:44:14.155Z,2.17
2022-09-21T18:46:50.694Z,1.80
2022-09-21T18:49:24.136Z,2.22
2022-09-21T18:51:54.753Z,2.28
2022-09-21T18:54:23.670Z,1.77
2022-09-21T18:56:53.279Z,2.03
2022-09-21T18:59:21.889Z,1.80
2022-09-21T19:01:50.946Z,1.65
2022-09-21T19:04:20.198Z,1.52
2022-09-21T19:06:50.666Z,1.50
2022-09-21T19:09:26.642Z,2.40
2022-09-21T19:14:26.852Z,1.35
2022-09-21T19:17:04.639Z,2.33
2022-09-21T19:19:37.058Z,1.48
2022-09-21T19:22:07.784Z,1.45
2022-09-21T19:24:39.375Z,7.65
2022-09-21T19:27:18.994Z,14.05
2022-09-21T19:29:54.678Z,7.32
2022-09-21T19:32:30.370Z,6.43
2022-09-21T19:34:58.465Z,2.20
2022-09-21T19:37:26.745Z,2.28
2022-09-21T19:39:55.171Z,1.88
2022-09-21T19:42:29.986Z,1.67
2022-09-21T19:45:07.982Z,1.83
2022-09-21T19:47:37.549Z,1.80
2022-09-21T19:50:13.175Z,1.75
2022-09-21T19:52:41.710Z,1.98
2022-09-21T19:55:32.245Z,1.80
2022-09-21T19:58:20.081Z,1.95
2022-09-21T20:00:50.395Z,1.73
2022-09-21T20:03:22.181Z,1.65
2022-09-21T20:05:55.019Z,1.77
2022-09-21T20:08:25.565Z,1.92
2022-09-21T20:11:02.766Z,1.85
2022-09-21T20:13:40.438Z,4.45
2022-09-21T20:16:20.297Z,1.90
2022-09-21T20:18:50.111Z,1.80
2022-09-21T20:21:19.326Z,1.80
2022-09-21T20:23:52.102Z,1.70
2022-09-21T20:26:25.026Z,1.90
2022-09-21T20:28:55.356Z,1.92
2022-09-21T20:31:23.875Z,1.85
2022-09-21T20:33:51.924Z,2.00
2022-09-21T20:36:19.980Z,1.75
2022-09-21T20:38:48.891Z,2.00
2022-09-21T20:41:19.078Z,2.38
2022-09-21T20:43:47.230Z,2.10
2022-09-21T20:46:17.066Z,2.40
2022-09-21T20:48:45.165Z,2.92
2022-09-21T20:51:13.409Z,2.42
2022-09-21T20:53:41.503Z,2.15
2022-09-21T20:56:09.592Z,1.70
2022-09-21T20:58:37.890Z,1.83
2022-09-21T21:01:06.263Z,1.73
2022-09-21T21:03:35.831Z,1.80
2022-09-21T21:06:11.378Z,1.95
2022-09-21T21:08:39.495Z,1.63
2022-09-21T21:11:07.649Z,1.83
2022-09-21T21:13:35.671Z,1.90
2022-09-21T21:16:08.192Z,1.70
2022-09-21T21:18:41.440Z,2.13
2022-09-21T21:21:09.567Z,2.10
2022-09-21T21:23:57.770Z,1.90
2022-09-21T21:26:38.495Z,1.90
2022-09-21T21:29:13.851Z,1.83
2022-09-21T21:31:42.057Z,2.10
2022-09-21T21:34:11.528Z,2.28
2022-09-21T21:36:39.977Z,2.10
2022-09-21T21:39:08.145Z,2.10
2022-09-21T21:41:36.176Z,2.00
2022-09-21T21:44:04.192Z,2.13
2022-09-21T21:46:32.364Z,1.90
2022-09-21T21:49:00.481Z,1.95
2022-09-21T21:51:30.120Z,1.90
2022-09-21T21:53:58.149Z,1.95
2022-09-21T21:56:26.659Z,1.80
2022-09-21T21:58:54.977Z,2.00
2022-09-21T22:01:23.899Z,1.98
2022-09-21T22:03:53.936Z,1.67
2022-09-21T22:06:22.322Z,2.50
2022-09-21T22:08:51.766Z,2.00
2022-09-21T22:11:20.084Z,2.83
2022-09-21T22:13:48.127Z,3.70
2022-09-21T22:16:20.033Z,2.10
2022-09-21T22:18:48.093Z,4.22
2022-09-21T22:21:17.529Z,1.90
2022-09-21T22:23:45.592Z,2.72
2022-09-21T22:26:15.881Z,2.38
2022-09-21T22:28:45.092Z,2.20
2022-09-21T22:31:15.245Z,2.00
2022-09-21T22:33:43.388Z,2.00
2022-09-21T22:36:13.075Z,1.65
2022-09-21T22:38:43.105Z,1.67
2022-09-21T22:41:12.888Z,1.95
2022-09-21T22:43:42.261Z,1.65
2022-09-21T22:46:10.419Z,1.70
2022-09-21T22:48:38.459Z,1.70
2022-09-21T22:51:06.678Z,1.70
2022-09-21T22:53:34.928Z,2.00
2022-09-21T22:56:04.772Z,1.80
2022-09-21T22:58:33.037Z,1.58
2022-09-21T23:01:06.969Z,2.00
2022-09-21T23:03:35.175Z,2.03
2022-09-21T23:06:03.326Z,1.88
2022-09-21T23:08:31.514Z,1.98
2022-09-21T23:11:06.938Z,1.80
2022-09-21T23:13:34.988Z,2.10
2022-09-21T23:16:05.663Z,1.77
2022-09-21T23:18:33.788Z,1.90
2022-09-21T23:21:02.867Z,1.98
2022-09-21T23:23:32.414Z,1.85
2022-09-21T23:26:04.919Z,1.75
2022-09-21T23:28:33.163Z,1.63
2022-09-21T23:31:01.734Z,1.80
2022-09-21T23:33:35.012Z,1.73
2022-09-21T23:36:03.451Z,1.80
2022-09-21T23:38:31.509Z,1.70
2022-09-21T23:41:04.292Z,1.73
2022-09-21T23:43:32.559Z,1.88
2022-09-21T23:46:00.624Z,1.85
2022-09-21T23:48:28.732Z,1.70
2022-09-21T23:50:58.252Z,1.60
2022-09-21T23:53:27.404Z,1.90
2022-09-21T23:55:55.504Z,1.80
2022-09-21T23:58:23.684Z,1.58
